createdAt,value
2018-09-12T00:02:16.393Z,3.00
2018-09-12T00:04:43.523Z,2.63
2018-09-12T00:07:10.670Z,2.30
2018-09-12T00:09:37.782Z,2.73
2018-09-12T00:12:04.942Z,2.50
2018-09-12T00:14:32.050Z,2.37
2018-09-12T00:16:59.150Z,2.70
2018-09-12T00:19:26.302Z,2.30
2018-09-12T00:21:53.453Z,2.77
2018-09-12T00:24:20.602Z,2.20
2018-09-12T00:26:47.714Z,2.77
2018-09-12T00:29:15.612Z,2.10
2018-09-12T00:31:42.729Z,2.63
2018-09-12T00:34:09.829Z,2.43
2018-09-12T00:36:36.917Z,2.77
2018-09-12T00:39:06.923Z,3.10
2018-09-12T00:41:34.026Z,2.67
2018-09-12T00:44:01.132Z,2.30
2018-09-12T00:46:28.274Z,2.60
2018-09-12T00:48:55.421Z,2.20
2018-09-12T00:51:22.574Z,2.13
2018-09-12T00:53:49.648Z,2.40
2018-09-12T00:56:16.742Z,2.30
2018-09-12T00:58:43.863Z,2.37
2018-09-12T01:01:10.993Z,2.43
2018-09-12T01:03:38.105Z,2.60
2018-09-12T01:06:05.619Z,2.07
2018-09-12T01:08:32.717Z,2.30
2018-09-12T01:10:59.824Z,2.53
2018-09-12T01:13:27.014Z,2.57
2018-09-12T01:15:54.117Z,2.73
2018-09-12T01:18:21.204Z,2.57
2018-09-12T01:20:49.870Z,2.10
2018-09-12T01:23:16.997Z,2.43
2018-09-12T01:25:44.306Z,2.50
2018-09-12T01:28:11.439Z,2.90
2018-09-12T01:30:38.529Z,2.57
2018-09-12T01:33:05.729Z,2.07
2018-09-12T01:35:32.857Z,2.70
2018-09-12T01:37:59.978Z,2.63
2018-09-12T01:40:27.157Z,2.53
2018-09-12T01:42:54.287Z,2.37
2018-09-12T01:45:21.495Z,2.80
2018-09-12T01:47:48.616Z,2.73
2018-09-12T01:50:15.795Z,2.53
2018-09-12T01:52:42.975Z,2.37
2018-09-12T01:55:10.102Z,2.40
2018-09-12T01:57:37.215Z,2.70
2018-09-12T02:00:04.393Z,2.70
2018-09-12T02:02:31.506Z,2.20
2018-09-12T02:04:58.634Z,2.70
2018-09-12T02:07:25.798Z,2.40
2018-09-12T02:09:52.953Z,2.20
2018-09-12T02:12:20.078Z,2.37
2018-09-12T02:14:47.174Z,3.07
2018-09-12T02:17:14.258Z,2.60
2018-09-12T02:19:41.386Z,2.37
2018-09-12T02:22:08.529Z,2.60
2018-09-12T02:24:35.674Z,2.47
2018-09-12T02:27:02.808Z,2.40
2018-09-12T02:29:30.042Z,2.23
2018-09-12T02:32:03.886Z,2.70
2018-09-12T02:34:30.965Z,2.43
2018-09-12T02:36:58.065Z,2.60
2018-09-12T02:39:25.211Z,2.37
2018-09-12T02:41:52.361Z,3.10
2018-09-12T02:44:19.453Z,2.27
2018-09-12T02:46:46.558Z,2.40
2018-09-12T02:49:13.650Z,2.60
2018-09-12T02:51:40.754Z,2.27
2018-09-12T02:54:07.851Z,1.93
2018-09-12T02:56:34.972Z,2.93
2018-09-12T02:59:02.084Z,2.70
2018-09-12T03:01:29.210Z,2.53
2018-09-12T03:03:56.354Z,2.77
2018-09-12T03:06:23.529Z,2.30
2018-09-12T03:08:50.644Z,2.67
2018-09-12T03:11:17.758Z,2.80
2018-09-12T03:13:44.852Z,2.80
2018-09-12T03:16:11.952Z,2.40
2018-09-12T03:18:39.053Z,2.60
2018-09-12T03:21:06.332Z,1.90
2018-09-12T03:23:33.302Z,2.60
2018-09-12T03:26:00.433Z,2.40
2018-09-12T03:28:27.546Z,3.27
2018-09-12T03:30:54.674Z,2.67
2018-09-12T03:33:21.796Z,2.40
2018-09-12T03:35:49.367Z,2.50
2018-09-12T03:38:16.554Z,2.47
2018-09-12T03:40:43.701Z,3.13
2018-09-12T03:43:10.884Z,2.40
2018-09-12T03:45:37.996Z,2.87
2018-09-12T03:48:05.118Z,2.50
2018-09-12T03:50:32.209Z,2.43
2018-09-12T03:52:59.327Z,2.67
2018-09-12T03:55:26.525Z,2.87
2018-09-12T03:57:53.686Z,3.27
2018-09-12T04:00:20.788Z,3.03
2018-09-12T04:02:48.020Z,3.00
2018-09-12T04:05:15.166Z,2.70
2018-09-12T04:07:42.287Z,3.10
2018-09-12T04:10:09.385Z,2.90
2018-09-12T04:12:36.489Z,2.70
2018-09-12T04:15:03.875Z,2.50
2018-09-12T04:17:33.126Z,2.80
2018-09-12T04:20:00.574Z,2.90
2018-09-12T04:22:27.694Z,2.83
2018-09-12T04:24:54.844Z,2.97
2018-09-12T04:27:22.404Z,3.50
2018-09-12T04:29:49.543Z,2.77
2018-09-12T04:32:16.823Z,3.40
2018-09-12T04:34:43.962Z,3.10
2018-09-12T04:37:11.081Z,2.60
2018-09-12T04:39:38.181Z,3.27
2018-09-12T04:42:05.341Z,2.37
2018-09-12T04:44:32.481Z,2.70
2018-09-12T04:46:59.665Z,2.80
2018-09-12T04:49:26.838Z,2.57
2018-09-12T04:51:53.987Z,3.00
2018-09-12T04:54:21.959Z,2.60
2018-09-12T04:56:49.053Z,3.30
2018-09-12T04:59:16.149Z,3.23
2018-09-12T05:01:43.321Z,2.93
2018-09-12T05:04:10.441Z,3.40
2018-09-12T05:06:37.545Z,3.13
2018-09-12T05:09:06.890Z,2.80
2018-09-12T05:11:33.996Z,2.70
2018-09-12T05:14:01.122Z,2.63
2018-09-12T05:16:28.346Z,2.83
2018-09-12T05:18:55.505Z,2.53
2018-09-12T05:21:22.641Z,2.57
2018-09-12T05:23:49.742Z,2.50
2018-09-12T05:26:16.885Z,2.70
2018-09-12T05:28:44.021Z,2.73
2018-09-12T05:31:11.129Z,3.13
2018-09-12T05:33:38.244Z,2.30
2018-09-12T05:36:05.737Z,2.87
2018-09-12T05:38:32.837Z,2.80
2018-09-12T05:40:59.933Z,2.93
2018-09-12T05:43:27.067Z,2.70
2018-09-12T05:45:54.215Z,2.90
2018-09-12T05:48:21.339Z,2.70
2018-09-12T05:50:48.583Z,2.80
2018-09-12T05:53:15.684Z,2.63
2018-09-12T05:55:42.778Z,3.20
2018-09-12T05:58:09.890Z,3.33
2018-09-12T06:00:36.993Z,3.43
2018-09-12T06:03:04.158Z,3.70
2018-09-12T06:05:31.266Z,3.70
2018-09-12T06:07:58.373Z,4.00
2018-09-12T06:10:25.552Z,3.57
2018-09-12T06:12:52.721Z,3.83
2018-09-12T06:15:19.915Z,4.27
2018-09-12T06:17:47.045Z,4.13
2018-09-12T06:20:14.177Z,3.57
2018-09-12T06:22:41.321Z,4.33
2018-09-12T06:25:08.421Z,4.60
2018-09-12T06:27:35.822Z,4.13
2018-09-12T06:30:03.012Z,4.30
2018-09-12T06:32:30.146Z,4.23
2018-09-12T06:34:57.284Z,5.47
2018-09-12T06:37:24.420Z,4.87
2018-09-12T06:39:51.568Z,3.92
2018-09-12T06:42:18.705Z,4.60
2018-09-12T06:44:45.827Z,5.05
2018-09-12T06:47:12.908Z,4.65
2018-09-12T06:49:39.990Z,4.67
2018-09-12T06:52:07.149Z,4.42
2018-09-12T06:54:34.450Z,4.17
2018-09-12T06:57:01.563Z,4.70
2018-09-12T06:59:28.731Z,3.98
2018-09-12T07:01:55.873Z,3.87
2018-09-12T07:04:23.037Z,3.77
2018-09-12T07:06:50.113Z,4.67
2018-09-12T07:09:17.232Z,4.60
2018-09-12T07:11:44.337Z,4.17
2018-09-12T07:14:11.453Z,5.50
2018-09-12T07:16:38.614Z,4.33
2018-09-12T07:19:05.734Z,4.50
2018-09-12T07:21:32.833Z,5.05
2018-09-12T07:23:59.973Z,4.20
2018-09-12T07:26:27.100Z,4.97
2018-09-12T07:28:54.447Z,4.42
2018-09-12T07:31:21.582Z,5.25
2018-09-12T07:33:48.698Z,4.80
2018-09-12T07:36:15.822Z,4.60
2018-09-12T07:38:42.962Z,4.17
2018-09-12T07:41:10.145Z,4.92
2018-09-12T07:43:37.261Z,5.12
2018-09-12T07:46:04.564Z,4.55
2018-09-12T07:48:31.818Z,4.72
2018-09-12T07:50:58.969Z,3.72
2018-09-12T07:53:26.118Z,4.70
2018-09-12T07:55:53.331Z,4.58
2018-09-12T07:58:20.425Z,4.35
2018-09-12T08:00:47.532Z,4.30
2018-09-12T08:03:14.747Z,4.28
2018-09-12T08:05:41.850Z,4.33
2018-09-12T08:08:08.998Z,4.42
2018-09-12T08:10:36.120Z,4.15
2018-09-12T08:13:03.239Z,4.05
2018-09-12T08:15:30.354Z,3.83
2018-09-12T08:17:57.478Z,3.85
2018-09-12T08:20:24.617Z,4.12
2018-09-12T08:22:51.728Z,3.77
2018-09-12T08:25:18.897Z,4.25
2018-09-12T08:27:46.009Z,3.92
2018-09-12T08:30:13.254Z,3.83
2018-09-12T08:32:40.353Z,3.58
2018-09-12T08:35:07.517Z,3.37
2018-09-12T08:37:34.646Z,3.35
2018-09-12T08:40:01.929Z,3.40
2018-09-12T08:42:29.223Z,3.33
2018-09-12T08:44:56.433Z,3.80
2018-09-12T08:47:23.750Z,3.10
2018-09-12T08:49:50.868Z,3.00
2018-09-12T08:52:18.003Z,3.27
2018-09-12T08:54:45.106Z,4.10
2018-09-12T08:57:12.206Z,3.25
2018-09-12T08:59:39.321Z,2.60
2018-09-12T09:02:06.416Z,2.52
2018-09-12T09:04:33.673Z,2.90
2018-09-12T09:07:00.773Z,2.60
2018-09-12T09:09:27.898Z,2.95
2018-09-12T09:11:55.205Z,2.58
2018-09-12T09:14:22.353Z,3.50
2018-09-12T09:16:49.473Z,3.12
2018-09-12T09:19:16.591Z,2.85
2018-09-12T09:21:43.699Z,2.85
2018-09-12T09:24:10.877Z,2.98
2018-09-12T09:26:38.003Z,3.08
2018-09-12T09:29:05.142Z,3.15
2018-09-12T09:31:32.271Z,3.00
2018-09-12T09:33:59.485Z,2.85
2018-09-12T09:36:26.614Z,2.75
2018-09-12T09:38:53.766Z,2.50
2018-09-12T09:41:20.998Z,2.60
2018-09-12T09:43:48.144Z,2.77
2018-09-12T09:46:15.232Z,2.50
2018-09-12T09:48:42.369Z,2.85
2018-09-12T09:51:09.501Z,2.60
2018-09-12T09:53:36.637Z,2.70
2018-09-12T09:56:03.822Z,2.90
2018-09-12T09:58:30.953Z,2.47
2018-09-12T10:01:03.913Z,2.40
2018-09-12T10:03:36.847Z,2.72
2018-09-12T10:06:09.811Z,3.27
2018-09-12T10:08:42.750Z,2.83
2018-09-12T10:11:09.861Z,2.60
2018-09-12T10:13:36.961Z,3.50
2018-09-12T10:16:04.084Z,3.22
2018-09-12T10:18:31.217Z,3.25
2018-09-12T10:20:58.374Z,3.65
2018-09-12T10:23:25.536Z,2.90
2018-09-12T10:25:53.223Z,3.40
2018-09-12T10:28:20.568Z,3.22
2018-09-12T10:30:47.700Z,3.17
2018-09-12T10:33:15.045Z,3.40
2018-09-12T10:35:42.175Z,3.25
2018-09-12T10:38:09.305Z,3.02
2018-09-12T10:40:36.440Z,3.45
2018-09-12T10:43:03.577Z,2.62
2018-09-12T10:45:30.677Z,3.10
2018-09-12T10:47:57.829Z,3.47
2018-09-12T10:50:25.033Z,3.47
2018-09-12T10:52:52.152Z,3.17
2018-09-12T10:55:19.281Z,3.40
2018-09-12T10:57:46.768Z,3.17
2018-09-12T11:00:13.978Z,3.12
2018-09-12T11:02:41.080Z,3.00
2018-09-12T11:05:08.193Z,3.20
2018-09-12T11:07:35.360Z,2.90
2018-09-12T11:10:02.497Z,3.10
2018-09-12T11:12:29.668Z,3.40
2018-09-12T11:14:56.903Z,2.75
2018-09-12T11:17:24.049Z,3.10
2018-09-12T11:19:51.148Z,3.30
2018-09-12T11:22:18.282Z,3.00
2018-09-12T11:24:45.634Z,2.58
2018-09-12T11:27:12.738Z,2.55
2018-09-12T11:29:39.876Z,3.10
2018-09-12T11:32:06.999Z,3.35
2018-09-12T11:34:34.125Z,3.20
2018-09-12T11:37:01.249Z,2.60
2018-09-12T11:39:28.402Z,3.08
2018-09-12T11:41:55.569Z,2.90
2018-09-12T11:44:22.718Z,3.08
2018-09-12T11:46:49.891Z,3.20
2018-09-12T11:49:17.097Z,3.22
2018-09-12T11:51:44.181Z,3.27
2018-09-12T11:54:11.281Z,3.50
2018-09-12T11:56:38.549Z,3.20
2018-09-12T11:59:05.665Z,2.80
2018-09-12T12:01:32.825Z,2.70
2018-09-12T12:03:59.929Z,3.20
2018-09-12T12:06:33.958Z,3.25
2018-09-12T12:09:01.109Z,3.15
2018-09-12T12:11:28.256Z,3.17
2018-09-12T12:13:55.460Z,3.47
2018-09-12T12:16:22.661Z,3.00
2018-09-12T12:18:49.800Z,3.50
2018-09-12T12:21:17.046Z,2.77
2018-09-12T12:23:44.165Z,2.98
2018-09-12T12:26:11.281Z,2.70
2018-09-12T12:28:38.414Z,3.37
2018-09-12T12:31:05.593Z,3.30
2018-09-12T12:33:32.717Z,3.17
2018-09-12T12:35:59.929Z,3.00
2018-09-12T12:38:27.066Z,3.20
2018-09-12T12:40:54.194Z,2.65
2018-09-12T12:43:21.321Z,3.20
2018-09-12T12:45:48.421Z,2.55
2018-09-12T12:48:15.533Z,2.95
2018-09-12T12:50:42.629Z,2.92
2018-09-12T12:53:09.729Z,2.85
2018-09-12T12:55:36.834Z,2.80
2018-09-12T12:58:04.092Z,3.05
2018-09-12T13:00:31.200Z,2.55
2018-09-12T13:02:58.414Z,2.83
2018-09-12T13:05:25.654Z,3.10
2018-09-12T13:07:52.819Z,2.40
2018-09-12T13:10:19.915Z,2.20
2018-09-12T13:12:47.046Z,2.85
2018-09-12T13:15:14.158Z,2.98
2018-09-12T13:17:48.079Z,2.87
2018-09-12T13:20:15.226Z,2.52
2018-09-12T13:22:42.322Z,2.70
2018-09-12T13:25:09.439Z,2.00
2018-09-12T13:27:36.606Z,1.90
2018-09-12T13:30:03.807Z,2.00
2018-09-12T13:32:30.945Z,2.50
2018-09-12T13:34:58.131Z,1.85
2018-09-12T13:37:25.302Z,1.60
2018-09-12T13:39:52.812Z,2.37
2018-09-12T13:42:19.954Z,1.80
2018-09-12T13:44:47.071Z,1.80
2018-09-12T13:47:14.198Z,1.90
2018-09-12T13:49:41.320Z,1.70
2018-09-12T13:52:08.444Z,1.67
2018-09-12T13:54:35.558Z,1.82
2018-09-12T13:57:02.692Z,1.87
2018-09-12T13:59:29.850Z,1.90
2018-09-12T14:01:57.000Z,1.45
2018-09-12T14:04:24.149Z,2.00
2018-09-12T14:06:51.327Z,1.80
2018-09-12T14:09:18.429Z,2.40
2018-09-12T14:11:45.546Z,2.02
2018-09-12T14:14:12.989Z,1.82
2018-09-12T14:16:40.102Z,1.65
2018-09-12T14:19:07.221Z,2.00
2018-09-12T14:21:34.348Z,1.57
2018-09-12T14:24:01.486Z,1.52
2018-09-12T14:26:28.688Z,1.65
2018-09-12T14:28:55.849Z,1.80
2018-09-12T14:31:23.029Z,1.82
2018-09-12T14:33:50.168Z,2.00
2018-09-12T14:36:17.326Z,1.95
2018-09-12T14:38:44.446Z,2.10
2018-09-12T14:41:11.568Z,1.67
2018-09-12T14:43:38.693Z,1.60
2018-09-12T14:46:06.434Z,1.57
2018-09-12T14:48:33.644Z,1.65
2018-09-12T14:51:00.761Z,1.90
2018-09-12T14:53:27.941Z,1.92
2018-09-12T14:55:55.170Z,1.82
2018-09-12T14:58:22.353Z,1.98
2018-09-12T15:00:52.519Z,2.12
2018-09-12T15:03:20.142Z,1.72
2018-09-12T15:05:47.242Z,1.75
2018-09-12T15:08:14.359Z,2.37
2018-09-12T15:10:41.498Z,2.05
2018-09-12T15:13:08.609Z,2.12
2018-09-12T15:15:35.720Z,2.30
2018-09-12T15:18:02.877Z,2.02
2018-09-12T15:20:29.992Z,2.17
2018-09-12T15:22:57.159Z,2.20
2018-09-12T15:25:24.335Z,2.17
2018-09-12T15:27:51.457Z,2.20
2018-09-12T15:30:18.557Z,2.00
2018-09-12T15:32:45.683Z,2.40
2018-09-12T15:35:12.794Z,2.40
2018-09-12T15:37:39.925Z,2.40
2018-09-12T15:40:07.101Z,2.17
2018-09-12T15:42:34.250Z,1.77
2018-09-12T15:45:01.353Z,1.90
2018-09-12T15:47:28.518Z,2.40
2018-09-12T15:49:55.690Z,2.27
2018-09-12T15:52:22.874Z,2.22
2018-09-12T15:54:50.035Z,2.42
2018-09-12T15:57:17.212Z,1.92
2018-09-12T15:59:44.425Z,2.30
2018-09-12T16:02:11.883Z,2.52
2018-09-12T16:04:39.022Z,2.27
2018-09-12T16:07:06.139Z,2.22
2018-09-12T16:09:33.280Z,2.40
2018-09-12T16:12:00.392Z,2.35
2018-09-12T16:14:27.545Z,1.95
2018-09-12T16:16:54.699Z,2.30
2018-09-12T16:19:21.849Z,1.95
2018-09-12T16:21:49.445Z,2.05
2018-09-12T16:24:16.609Z,2.55
2018-09-12T16:26:43.710Z,2.72
2018-09-12T16:29:10.826Z,2.80
2018-09-12T16:31:37.997Z,1.98
2018-09-12T16:34:05.370Z,2.37
2018-09-12T16:36:32.477Z,2.30
2018-09-12T16:38:59.597Z,2.58
2018-09-12T16:41:26.718Z,2.33
2018-09-12T16:43:54.118Z,2.55
2018-09-12T16:46:21.284Z,2.20
2018-09-12T16:48:48.498Z,3.10
2018-09-12T16:51:15.777Z,2.35
2018-09-12T16:53:42.885Z,2.40
2018-09-12T16:56:10.101Z,2.00
2018-09-12T16:58:37.185Z,2.30
2018-09-12T17:01:04.304Z,3.20
2018-09-12T17:03:31.450Z,3.25
2018-09-12T17:05:58.672Z,1.87
2018-09-12T17:08:25.889Z,2.52
2018-09-12T17:10:53.080Z,1.85
2018-09-12T17:13:20.222Z,2.00
2018-09-12T17:15:47.341Z,2.05
2018-09-12T17:18:14.788Z,1.90
2018-09-12T17:20:42.025Z,2.58
2018-09-12T17:23:09.148Z,2.58
2018-09-12T17:25:36.318Z,2.40
2018-09-12T17:28:03.438Z,2.20
2018-09-12T17:30:30.547Z,2.40
2018-09-12T17:32:57.806Z,2.92
2018-09-12T17:35:25.128Z,2.50
2018-09-12T17:37:52.249Z,2.72
2018-09-12T17:40:19.361Z,2.72
2018-09-12T17:42:46.470Z,2.52
2018-09-12T17:45:13.765Z,2.20
2018-09-12T17:47:40.865Z,2.25
2018-09-12T17:50:08.001Z,1.92
2018-09-12T17:52:35.109Z,2.12
2018-09-12T17:55:02.228Z,2.12
2018-09-12T17:57:29.598Z,2.00
2018-09-12T17:59:56.847Z,1.82
2018-09-12T18:02:24.077Z,2.10
2018-09-12T18:04:51.206Z,2.00
2018-09-12T18:07:18.646Z,2.45
2018-09-12T18:09:45.826Z,2.20
2018-09-12T18:12:12.940Z,1.98
2018-09-12T18:14:40.067Z,2.08
2018-09-12T18:17:07.181Z,2.05
2018-09-12T18:19:34.265Z,2.17
2018-09-12T18:22:01.530Z,2.20
2018-09-12T18:24:30.173Z,2.30
2018-09-12T18:26:57.306Z,2.57
2018-09-12T18:29:24.473Z,2.15
2018-09-12T18:31:51.592Z,2.15
2018-09-12T18:34:18.749Z,2.37
2018-09-12T18:36:45.846Z,2.77
2018-09-12T18:39:12.941Z,2.30
2018-09-12T18:41:40.074Z,2.90
2018-09-12T18:44:07.542Z,2.07
2018-09-12T18:46:34.836Z,2.80
2018-09-12T18:49:01.949Z,2.10
2018-09-12T18:51:29.166Z,2.37
2018-09-12T18:53:56.338Z,2.40
2018-09-12T18:56:30.322Z,2.87
2018-09-12T18:58:57.551Z,2.83
2018-09-12T19:01:24.757Z,2.47
2018-09-12T19:03:51.857Z,2.77
2018-09-12T19:06:18.950Z,2.70
2018-09-12T19:08:46.040Z,2.87
2018-09-12T19:11:13.185Z,2.87
2018-09-12T19:13:40.273Z,2.90
2018-09-12T19:16:07.386Z,3.10
2018-09-12T19:18:34.551Z,3.50
2018-09-12T19:21:01.672Z,2.90
2018-09-12T19:23:28.870Z,2.83
2018-09-12T19:25:56.093Z,3.20
2018-09-12T19:28:23.283Z,3.37
2018-09-12T19:30:50.386Z,2.60
2018-09-12T19:33:17.507Z,3.70
2018-09-12T19:35:44.889Z,3.90
2018-09-12T19:38:11.989Z,3.87
2018-09-12T19:40:39.087Z,3.90
2018-09-12T19:43:06.229Z,4.10
2018-09-12T19:45:33.354Z,4.17
2018-09-12T19:48:00.513Z,4.10
2018-09-12T19:50:27.642Z,4.30
2018-09-12T19:52:54.887Z,4.77
2018-09-12T19:55:22.410Z,4.53
2018-09-12T19:57:49.501Z,5.17
2018-09-12T20:00:17.943Z,6.10
2018-09-12T20:02:45.003Z,4.90
2018-09-12T20:05:12.127Z,5.10
2018-09-12T20:07:39.226Z,5.90
2018-09-12T20:10:06.375Z,5.20
2018-09-12T20:12:33.501Z,5.30
2018-09-12T20:15:00.611Z,5.97
2018-09-12T20:17:27.789Z,5.90
2018-09-12T20:19:54.995Z,6.17
2018-09-12T20:22:22.103Z,6.30
2018-09-12T20:24:49.234Z,6.23
2018-09-12T20:27:16.333Z,6.20
2018-09-12T20:29:43.744Z,6.27
2018-09-12T20:32:10.862Z,6.83
2018-09-12T20:34:37.989Z,6.87
2018-09-12T20:37:05.225Z,6.30
2018-09-12T20:39:32.354Z,7.43
2018-09-12T20:41:59.521Z,7.20
2018-09-12T20:44:26.676Z,7.90
2018-09-12T20:46:53.860Z,8.00
2018-09-12T20:49:21.002Z,7.23
2018-09-12T20:51:48.104Z,8.43
2018-09-12T20:54:15.885Z,7.80
2018-09-12T20:56:43.660Z,8.23
2018-09-12T20:59:10.921Z,9.33
2018-09-12T21:01:37.973Z,8.83
2018-09-12T21:04:05.118Z,8.80
2018-09-12T21:06:32.221Z,8.43
2018-09-12T21:08:59.324Z,8.63
2018-09-12T21:11:26.474Z,9.80
2018-09-12T21:13:53.692Z,9.63
2018-09-12T21:16:20.794Z,9.27
2018-09-12T21:18:47.898Z,8.97
2018-09-12T21:21:14.995Z,9.10
2018-09-12T21:23:42.136Z,9.93
2018-09-12T21:26:09.253Z,10.40
2018-09-12T21:28:36.361Z,10.90
2018-09-12T21:31:03.493Z,9.97
2018-09-12T21:33:30.645Z,9.87
2018-09-12T21:35:57.811Z,10.20
2018-09-12T21:38:25.000Z,9.77
2018-09-12T21:40:52.174Z,9.67
2018-09-12T21:43:19.386Z,10.07
2018-09-12T21:45:46.473Z,9.53
2018-09-12T21:48:13.562Z,9.90
2018-09-12T21:50:40.671Z,9.63
2018-09-12T21:53:07.843Z,9.13
2018-09-12T21:55:34.997Z,9.37
2018-09-12T21:58:02.136Z,8.90
2018-09-12T22:00:29.292Z,10.43
2018-09-12T22:02:56.485Z,10.47
2018-09-12T22:05:23.605Z,9.77
2018-09-12T22:07:50.902Z,9.47
2018-09-12T22:10:17.998Z,10.43
2018-09-12T22:12:45.406Z,9.77
2018-09-12T22:15:12.561Z,9.07
2018-09-12T22:17:39.673Z,9.27
2018-09-12T22:20:06.807Z,9.63
2018-09-12T22:22:33.901Z,9.60
2018-09-12T22:25:01.048Z,9.43
2018-09-12T22:27:28.218Z,9.27
2018-09-12T22:29:55.387Z,9.90
2018-09-12T22:32:22.485Z,8.50
2018-09-12T22:34:49.597Z,9.07
2018-09-12T22:37:16.710Z,8.50
2018-09-12T22:39:44.053Z,8.20
2018-09-12T22:42:11.181Z,8.80
2018-09-12T22:44:38.307Z,9.10
2018-09-12T22:47:05.457Z,8.63
2018-09-12T22:49:32.550Z,9.23
2018-09-12T22:51:59.645Z,9.67
2018-09-12T22:54:26.762Z,9.13
2018-09-12T22:56:53.906Z,8.67
2018-09-12T22:59:21.020Z,9.23
2018-09-12T23:01:48.205Z,9.97
2018-09-12T23:04:15.374Z,9.67
2018-09-12T23:06:42.481Z,8.77
2018-09-12T23:09:09.887Z,9.07
2018-09-12T23:11:37.357Z,9.07
2018-09-12T23:14:04.530Z,9.43
2018-09-12T23:16:31.677Z,9.70
2018-09-12T23:18:58.793Z,8.97
2018-09-12T23:21:25.930Z,9.13
2018-09-12T23:23:53.023Z,10.17
2018-09-12T23:26:20.169Z,9.93
2018-09-12T23:28:47.254Z,10.13
2018-09-12T23:31:14.356Z,10.93
2018-09-12T23:33:41.515Z,10.27
2018-09-12T23:36:08.730Z,10.50
2018-09-12T23:38:35.881Z,11.27
2018-09-12T23:41:02.982Z,10.30
2018-09-12T23:43:30.123Z,10.73
2018-09-12T23:45:57.222Z,10.47
2018-09-12T23:48:24.314Z,10.10
2018-09-12T23:50:51.426Z,11.40
2018-09-12T23:53:18.539Z,10.30
2018-09-12T23:55:45.665Z,10.60
2018-09-12T23:58:12.781Z,10.53
